Maine-Soroa, Niger
Current Conditions -  °F | °C
As of 7:00 PM on Thursday 30 Oct 2014 (Local Time) from FTTJ Reporting Station
Clear Clear  
Wind Chill: 86°   Ceiling: Unl
Heat Index: 86°   Visibility: 5mi
Dew Point: 61°   Wind: 3mph
Humidity: 43%   Direction: 40°NE
Pressure: 29.77"   Gusts: NA
Location:  13.21°N, 12.03°E
Report Text: FTTJ 301800Z 04003KT 8000 NSC 30/16 Q1008 NOSIG
Loading
Personal Weather Stations






























Interactive Weather Map
Tropical Storm Tracking
New forecast layout! Learn more

10-Day Weather Forecast

Advertisements
Track Severe Weather on mobile